sensor_id;sensor_type;location;lat;lon;timestamp;P1;durP1;ratioP1;P2;durP2;ratioP2
27580;SDS011;15013;52.298;7.978;2022-08-19T00:00:09;17.67;;;12.27;;
27580;SDS011;15013;52.298;7.978;2022-08-19T00:05:10;15.02;;;11.93;;
27580;SDS011;15013;52.298;7.978;2022-08-19T00:10:12;15.30;;;12.40;;
27580;SDS011;15013;52.298;7.978;2022-08-19T00:15:14;12.63;;;11.32;;
27580;SDS011;15013;52.298;7.978;2022-08-19T00:20:16;14.50;;;12.80;;
27580;SDS011;15013;52.298;7.978;2022-08-19T00:25:17;14.10;;;12.05;;
27580;SDS011;15013;52.298;7.978;2022-08-19T00:30:18;15.68;;;12.02;;
27580;SDS011;15013;52.298;7.978;2022-08-19T00:35:18;16.10;;;12.07;;
27580;SDS011;15013;52.298;7.978;2022-08-19T00:40:19;16.08;;;12.23;;
27580;SDS011;15013;52.298;7.978;2022-08-19T00:45:21;18.08;;;12.32;;
27580;SDS011;15013;52.298;7.978;2022-08-19T00:50:22;16.58;;;13.55;;
27580;SDS011;15013;52.298;7.978;2022-08-19T00:55:24;20.92;;;13.00;;
27580;SDS011;15013;52.298;7.978;2022-08-19T01:00:26;19.17;;;13.05;;
27580;SDS011;15013;52.298;7.978;2022-08-19T01:05:27;18.98;;;13.57;;
27580;SDS011;15013;52.298;7.978;2022-08-19T01:10:30;21.73;;;14.02;;
27580;SDS011;15013;52.298;7.978;2022-08-19T01:15:34;15.80;;;14.15;;
27580;SDS011;15013;52.298;7.978;2022-08-19T01:20:35;16.55;;;13.80;;
27580;SDS011;15013;52.298;7.978;2022-08-19T01:25:39;18.67;;;14.07;;
27580;SDS011;15013;52.298;7.978;2022-08-19T01:30:41;16.93;;;14.60;;
27580;SDS011;15013;52.298;7.978;2022-08-19T01:35:41;20.13;;;16.07;;
27580;SDS011;15013;52.298;7.978;2022-08-19T01:40:42;20.27;;;15.30;;
27580;SDS011;15013;52.298;7.978;2022-08-19T01:45:42;17.80;;;13.02;;
27580;SDS011;15013;52.298;7.978;2022-08-19T01:50:43;16.30;;;14.13;;
27580;SDS011;15013;52.298;7.978;2022-08-19T01:55:43;17.10;;;13.77;;
27580;SDS011;15013;52.298;7.978;2022-08-19T02:00:44;19.48;;;14.98;;
27580;SDS011;15013;52.298;7.978;2022-08-19T02:05:45;21.88;;;16.40;;
27580;SDS011;15013;52.298;7.978;2022-08-19T02:10:45;21.95;;;16.33;;
27580;SDS011;15013;52.298;7.978;2022-08-19T02:15:46;23.63;;;17.50;;
27580;SDS011;15013;52.298;7.978;2022-08-19T02:20:46;20.13;;;16.67;;
27580;SDS011;15013;52.298;7.978;2022-08-19T02:25:51;22.83;;;16.17;;
27580;SDS011;15013;52.298;7.978;2022-08-19T02:30:51;25.92;;;17.38;;
27580;SDS011;15013;52.298;7.978;2022-08-19T02:35:51;25.63;;;16.40;;
27580;SDS011;15013;52.298;7.978;2022-08-19T02:40:53;23.13;;;17.53;;
27580;SDS011;15013;52.298;7.978;2022-08-19T02:45:53;26.02;;;17.70;;
27580;SDS011;15013;52.298;7.978;2022-08-19T02:50:54;22.48;;;18.02;;
27580;SDS011;15013;52.298;7.978;2022-08-19T02:55:57;20.13;;;16.27;;
27580;SDS011;15013;52.298;7.978;2022-08-19T03:00:58;19.55;;;15.35;;
27580;SDS011;15013;52.298;7.978;2022-08-19T03:06:09;22.60;;;15.75;;
27580;SDS011;15013;52.298;7.978;2022-08-19T03:11:13;17.58;;;15.23;;
27580;SDS011;15013;52.298;7.978;2022-08-19T03:16:14;23.42;;;17.60;;
27580;SDS011;15013;52.298;7.978;2022-08-19T03:21:16;20.42;;;16.63;;
27580;SDS011;15013;52.298;7.978;2022-08-19T03:26:16;22.40;;;16.73;;
27580;SDS011;15013;52.298;7.978;2022-08-19T03:31:20;19.57;;;15.83;;
27580;SDS011;15013;52.298;7.978;2022-08-19T03:41:24;19.90;;;16.40;;
27580;SDS011;15013;52.298;7.978;2022-08-19T03:46:26;24.77;;;17.75;;
27580;SDS011;15013;52.298;7.978;2022-08-19T03:51:27;29.15;;;20.30;;
27580;SDS011;15013;52.298;7.978;2022-08-19T03:56:28;25.63;;;20.85;;
27580;SDS011;15013;52.298;7.978;2022-08-19T04:01:29;29.80;;;22.40;;
27580;SDS011;15013;52.298;7.978;2022-08-19T04:06:30;30.60;;;21.53;;
27580;SDS011;15013;52.298;7.978;2022-08-19T04:11:33;33.45;;;22.25;;
27580;SDS011;15013;52.298;7.978;2022-08-19T04:16:34;30.75;;;22.08;;
27580;SDS011;15013;52.298;7.978;2022-08-19T04:21:35;32.70;;;21.48;;
27580;SDS011;15013;52.298;7.978;2022-08-19T04:26:35;29.20;;;18.43;;
27580;SDS011;15013;52.298;7.978;2022-08-19T04:31:36;25.65;;;19.35;;
27580;SDS011;15013;52.298;7.978;2022-08-19T04:36:37;25.07;;;18.67;;
27580;SDS011;15013;52.298;7.978;2022-08-19T04:41:39;24.70;;;19.33;;
27580;SDS011;15013;52.298;7.978;2022-08-19T04:46:58;23.88;;;19.65;;
27580;SDS011;15013;52.298;7.978;2022-08-19T04:51:59;29.30;;;21.27;;
27580;SDS011;15013;52.298;7.978;2022-08-19T04:56:59;32.00;;;21.87;;
27580;SDS011;15013;52.298;7.978;2022-08-19T05:02:00;31.03;;;22.30;;
27580;SDS011;15013;52.298;7.978;2022-08-19T05:07:00;31.00;;;22.80;;
27580;SDS011;15013;52.298;7.978;2022-08-19T05:12:01;30.67;;;24.07;;
27580;SDS011;15013;52.298;7.978;2022-08-19T05:17:01;32.33;;;22.55;;
27580;SDS011;15013;52.298;7.978;2022-08-19T05:22:01;35.83;;;24.37;;
27580;SDS011;15013;52.298;7.978;2022-08-19T05:27:20;35.10;;;24.48;;
27580;SDS011;15013;52.298;7.978;2022-08-19T05:32:20;38.53;;;25.73;;
27580;SDS011;15013;52.298;7.978;2022-08-19T05:37:23;35.22;;;24.83;;
27580;SDS011;15013;52.298;7.978;2022-08-19T05:42:28;38.05;;;27.20;;
27580;SDS011;15013;52.298;7.978;2022-08-19T05:47:28;37.58;;;29.20;;
27580;SDS011;15013;52.298;7.978;2022-08-19T05:52:28;40.03;;;29.52;;
27580;SDS011;15013;52.298;7.978;2022-08-19T05:57:29;43.63;;;27.52;;
27580;SDS011;15013;52.298;7.978;2022-08-19T06:02:29;41.88;;;29.33;;
27580;SDS011;15013;52.298;7.978;2022-08-19T06:07:33;47.45;;;29.35;;
27580;SDS011;15013;52.298;7.978;2022-08-19T06:12:34;40.07;;;28.10;;
27580;SDS011;15013;52.298;7.978;2022-08-19T06:17:35;38.70;;;27.80;;
27580;SDS011;15013;52.298;7.978;2022-08-19T06:22:39;40.40;;;26.60;;
27580;SDS011;15013;52.298;7.978;2022-08-19T06:27:39;37.20;;;26.02;;
27580;SDS011;15013;52.298;7.978;2022-08-19T06:32:40;33.90;;;24.88;;
27580;SDS011;15013;52.298;7.978;2022-08-19T06:37:40;29.25;;;21.88;;
27580;SDS011;15013;52.298;7.978;2022-08-19T06:42:41;32.05;;;22.48;;
27580;SDS011;15013;52.298;7.978;2022-08-19T06:47:41;32.47;;;20.40;;
27580;SDS011;15013;52.298;7.978;2022-08-19T06:52:46;25.02;;;19.17;;
27580;SDS011;15013;52.298;7.978;2022-08-19T06:57:47;24.98;;;17.75;;
27580;SDS011;15013;52.298;7.978;2022-08-19T07:02:48;23.80;;;16.50;;
27580;SDS011;15013;52.298;7.978;2022-08-19T07:07:49;25.10;;;16.05;;
27580;SDS011;15013;52.298;7.978;2022-08-19T07:12:49;21.65;;;16.02;;
27580;SDS011;15013;52.298;7.978;2022-08-19T07:17:50;20.05;;;12.35;;
27580;SDS011;15013;52.298;7.978;2022-08-19T07:22:51;18.50;;;13.20;;
27580;SDS011;15013;52.298;7.978;2022-08-19T07:27:51;14.67;;;12.03;;
27580;SDS011;15013;52.298;7.978;2022-08-19T07:32:52;13.10;;;10.60;;
27580;SDS011;15013;52.298;7.978;2022-08-19T07:37:52;16.80;;;11.00;;
27580;SDS011;15013;52.298;7.978;2022-08-19T07:42:53;14.70;;;10.47;;
27580;SDS011;15013;52.298;7.978;2022-08-19T07:47:53;13.40;;;11.67;;
27580;SDS011;15013;52.298;7.978;2022-08-19T07:52:54;16.02;;;13.73;;
27580;SDS011;15013;52.298;7.978;2022-08-19T07:57:54;13.70;;;12.30;;
27580;SDS011;15013;52.298;7.978;2022-08-19T08:02:55;15.93;;;10.88;;
27580;SDS011;15013;52.298;7.978;2022-08-19T08:07:55;10.43;;;8.13;;
27580;SDS011;15013;52.298;7.978;2022-08-19T08:13:14;14.70;;;10.20;;
27580;SDS011;15013;52.298;7.978;2022-08-19T08:18:14;15.20;;;9.03;;
27580;SDS011;15013;52.298;7.978;2022-08-19T08:23:15;10.73;;;9.63;;
27580;SDS011;15013;52.298;7.978;2022-08-19T08:28:29;11.55;;;10.23;;
27580;SDS011;15013;52.298;7.978;2022-08-19T08:33:29;9.48;;;8.40;;
27580;SDS011;15013;52.298;7.978;2022-08-19T08:38:31;8.20;;;5.55;;
27580;SDS011;15013;52.298;7.978;2022-08-19T08:43:37;6.97;;;5.07;;
27580;SDS011;15013;52.298;7.978;2022-08-19T08:53:47;5.88;;;5.32;;
27580;SDS011;15013;52.298;7.978;2022-08-19T09:03:52;6.18;;;5.57;;
27580;SDS011;15013;52.298;7.978;2022-08-19T09:14:01;8.15;;;5.65;;
27580;SDS011;15013;52.298;7.978;2022-08-19T09:19:04;7.13;;;6.32;;
27580;SDS011;15013;52.298;7.978;2022-08-19T09:24:05;9.82;;;7.22;;
27580;SDS011;15013;52.298;7.978;2022-08-19T09:29:06;8.00;;;7.20;;
27580;SDS011;15013;52.298;7.978;2022-08-19T09:34:06;7.78;;;7.07;;
27580;SDS011;15013;52.298;7.978;2022-08-19T09:39:08;9.15;;;6.32;;
27580;SDS011;15013;52.298;7.978;2022-08-19T09:44:08;13.97;;;6.70;;
27580;SDS011;15013;52.298;7.978;2022-08-19T09:49:12;7.65;;;5.90;;
27580;SDS011;15013;52.298;7.978;2022-08-19T09:54:12;10.88;;;5.55;;
27580;SDS011;15013;52.298;7.978;2022-08-19T09:59:14;5.90;;;5.32;;
27580;SDS011;15013;52.298;7.978;2022-08-19T10:04:15;8.03;;;5.67;;
27580;SDS011;15013;52.298;7.978;2022-08-19T10:09:16;6.32;;;5.72;;
27580;SDS011;15013;52.298;7.978;2022-08-19T10:14:17;5.40;;;4.65;;
27580;SDS011;15013;52.298;7.978;2022-08-19T10:19:22;5.25;;;3.25;;
27580;SDS011;15013;52.298;7.978;2022-08-19T10:24:22;5.30;;;3.63;;
27580;SDS011;15013;52.298;7.978;2022-08-19T10:29:24;4.97;;;4.53;;
27580;SDS011;15013;52.298;7.978;2022-08-19T10:34:24;4.75;;;4.00;;
27580;SDS011;15013;52.298;7.978;2022-08-19T10:39:25;6.90;;;4.32;;
27580;SDS011;15013;52.298;7.978;2022-08-19T10:44:28;4.93;;;4.30;;
27580;SDS011;15013;52.298;7.978;2022-08-19T10:49:30;4.78;;;3.75;;
27580;SDS011;15013;52.298;7.978;2022-08-19T10:54:32;4.32;;;3.92;;
27580;SDS011;15013;52.298;7.978;2022-08-19T10:59:51;4.95;;;2.97;;
27580;SDS011;15013;52.298;7.978;2022-08-19T11:04:51;3.30;;;2.93;;
27580;SDS011;15013;52.298;7.978;2022-08-19T11:09:52;4.57;;;3.17;;
27580;SDS011;15013;52.298;7.978;2022-08-19T11:14:52;3.77;;;2.67;;
27580;SDS011;15013;52.298;7.978;2022-08-19T11:19:52;7.38;;;6.18;;
27580;SDS011;15013;52.298;7.978;2022-08-19T11:24:53;5.30;;;3.40;;
27580;SDS011;15013;52.298;7.978;2022-08-19T11:29:55;3.03;;;2.83;;
27580;SDS011;15013;52.298;7.978;2022-08-19T11:34:55;3.58;;;3.28;;
27580;SDS011;15013;52.298;7.978;2022-08-19T11:39:56;4.00;;;3.60;;
27580;SDS011;15013;52.298;7.978;2022-08-19T11:44:56;3.70;;;3.40;;
27580;SDS011;15013;52.298;7.978;2022-08-19T11:49:57;4.43;;;3.90;;
27580;SDS011;15013;52.298;7.978;2022-08-19T11:54:57;4.20;;;3.90;;
27580;SDS011;15013;52.298;7.978;2022-08-19T11:59:57;4.57;;;3.33;;
27580;SDS011;15013;52.298;7.978;2022-08-19T12:04:58;3.80;;;3.50;;
27580;SDS011;15013;52.298;7.978;2022-08-19T12:09:59;3.58;;;3.28;;
27580;SDS011;15013;52.298;7.978;2022-08-19T12:14:59;5.47;;;3.38;;
27580;SDS011;15013;52.298;7.978;2022-08-19T12:19:59;3.97;;;3.57;;
27580;SDS011;15013;52.298;7.978;2022-08-19T12:25:00;6.00;;;3.80;;
27580;SDS011;15013;52.298;7.978;2022-08-19T12:30:01;3.72;;;3.10;;
27580;SDS011;15013;52.298;7.978;2022-08-19T12:35:02;3.60;;;2.97;;
27580;SDS011;15013;52.298;7.978;2022-08-19T12:40:03;4.05;;;3.75;;
27580;SDS011;15013;52.298;7.978;2022-08-19T12:45:03;3.38;;;3.17;;
27580;SDS011;15013;52.298;7.978;2022-08-19T12:50:04;6.25;;;3.38;;
27580;SDS011;15013;52.298;7.978;2022-08-19T12:55:07;4.88;;;3.67;;
27580;SDS011;15013;52.298;7.978;2022-08-19T13:00:09;3.88;;;3.42;;
27580;SDS011;15013;52.298;7.978;2022-08-19T13:05:14;4.20;;;3.78;;
27580;SDS011;15013;52.298;7.978;2022-08-19T13:10:17;4.40;;;3.80;;
27580;SDS011;15013;52.298;7.978;2022-08-19T13:15:18;4.20;;;3.90;;
27580;SDS011;15013;52.298;7.978;2022-08-19T13:20:21;4.07;;;3.45;;
27580;SDS011;15013;52.298;7.978;2022-08-19T13:25:22;4.00;;;3.60;;
27580;SDS011;15013;52.298;7.978;2022-08-19T13:30:23;7.43;;;3.53;;
27580;SDS011;15013;52.298;7.978;2022-08-19T13:35:49;3.45;;;3.03;;
27580;SDS011;15013;52.298;7.978;2022-08-19T13:40:50;3.90;;;3.50;;
27580;SDS011;15013;52.298;7.978;2022-08-19T13:45:52;4.00;;;3.70;;
27580;SDS011;15013;52.298;7.978;2022-08-19T13:50:55;6.32;;;3.75;;
27580;SDS011;15013;52.298;7.978;2022-08-19T13:55:56;3.70;;;3.40;;
27580;SDS011;15013;52.298;7.978;2022-08-19T14:00:56;4.07;;;3.78;;
27580;SDS011;15013;52.298;7.978;2022-08-19T14:05:59;4.47;;;3.90;;
27580;SDS011;15013;52.298;7.978;2022-08-19T14:10:59;4.30;;;3.90;;
27580;SDS011;15013;52.298;7.978;2022-08-19T14:16:00;4.88;;;3.83;;
27580;SDS011;15013;52.298;7.978;2022-08-19T14:21:01;6.70;;;4.00;;
27580;SDS011;15013;52.298;7.978;2022-08-19T14:26:07;5.85;;;3.92;;
27580;SDS011;15013;52.298;7.978;2022-08-19T14:31:11;4.75;;;4.35;;
27580;SDS011;15013;52.298;7.978;2022-08-19T14:36:11;5.05;;;4.65;;
27580;SDS011;15013;52.298;7.978;2022-08-19T14:41:19;6.47;;;4.60;;
27580;SDS011;15013;52.298;7.978;2022-08-19T14:46:21;9.13;;;4.57;;
27580;SDS011;15013;52.298;7.978;2022-08-19T14:51:22;5.00;;;4.50;;
27580;SDS011;15013;52.298;7.978;2022-08-19T14:56:24;5.18;;;4.55;;
27580;SDS011;15013;52.298;7.978;2022-08-19T15:01:24;5.15;;;4.50;;
27580;SDS011;15013;52.298;7.978;2022-08-19T15:06:25;5.80;;;5.30;;
27580;SDS011;15013;52.298;7.978;2022-08-19T15:11:26;6.10;;;5.63;;
27580;SDS011;15013;52.298;7.978;2022-08-19T15:16:27;7.15;;;5.78;;
27580;SDS011;15013;52.298;7.978;2022-08-19T15:21:28;7.17;;;6.57;;
27580;SDS011;15013;52.298;7.978;2022-08-19T15:26:29;7.00;;;6.35;;
27580;SDS011;15013;52.298;7.978;2022-08-19T15:31:32;7.80;;;6.10;;
27580;SDS011;15013;52.298;7.978;2022-08-19T15:36:35;9.90;;;6.95;;
27580;SDS011;15013;52.298;7.978;2022-08-19T15:41:36;7.65;;;5.75;;
27580;SDS011;15013;52.298;7.978;2022-08-19T15:46:39;7.43;;;6.57;;
27580;SDS011;15013;52.298;7.978;2022-08-19T15:51:41;6.93;;;6.28;;
27580;SDS011;15013;52.298;7.978;2022-08-19T15:56:42;8.75;;;6.75;;
27580;SDS011;15013;52.298;7.978;2022-08-19T16:02:05;10.50;;;7.25;;
27580;SDS011;15013;52.298;7.978;2022-08-19T16:07:25;7.07;;;6.38;;
27580;SDS011;15013;52.298;7.978;2022-08-19T16:12:25;9.60;;;7.60;;
27580;SDS011;15013;52.298;7.978;2022-08-19T16:17:28;11.60;;;7.57;;
27580;SDS011;15013;52.298;7.978;2022-08-19T16:22:29;9.13;;;7.50;;
27580;SDS011;15013;52.298;7.978;2022-08-19T16:27:30;11.38;;;6.97;;
27580;SDS011;15013;52.298;7.978;2022-08-19T16:32:31;10.07;;;7.43;;
27580;SDS011;15013;52.298;7.978;2022-08-19T16:37:31;8.47;;;7.73;;
27580;SDS011;15013;52.298;7.978;2022-08-19T16:42:31;9.02;;;7.80;;
27580;SDS011;15013;52.298;7.978;2022-08-19T16:47:33;8.82;;;7.40;;
27580;SDS011;15013;52.298;7.978;2022-08-19T16:52:34;8.45;;;7.65;;
27580;SDS011;15013;52.298;7.978;2022-08-19T16:57:35;9.00;;;8.20;;
27580;SDS011;15013;52.298;7.978;2022-08-19T17:02:35;9.40;;;8.37;;
27580;SDS011;15013;52.298;7.978;2022-08-19T17:07:37;10.77;;;9.13;;
27580;SDS011;15013;52.298;7.978;2022-08-19T17:12:37;10.10;;;8.47;;
27580;SDS011;15013;52.298;7.978;2022-08-19T17:17:37;9.93;;;8.93;;
27580;SDS011;15013;52.298;7.978;2022-08-19T17:22:38;9.30;;;8.30;;
27580;SDS011;15013;52.298;7.978;2022-08-19T17:27:38;10.60;;;9.43;;
27580;SDS011;15013;52.298;7.978;2022-08-19T17:32:39;9.97;;;8.27;;
27580;SDS011;15013;52.298;7.978;2022-08-19T17:37:39;9.33;;;8.53;;
27580;SDS011;15013;52.298;7.978;2022-08-19T17:42:39;9.43;;;8.23;;
27580;SDS011;15013;52.298;7.978;2022-08-19T17:47:40;8.48;;;7.50;;
27580;SDS011;15013;52.298;7.978;2022-08-19T17:52:40;9.93;;;9.07;;
27580;SDS011;15013;52.298;7.978;2022-08-19T17:57:42;10.35;;;7.50;;
27580;SDS011;15013;52.298;7.978;2022-08-19T18:03:01;10.30;;;7.13;;
27580;SDS011;15013;52.298;7.978;2022-08-19T18:08:02;10.38;;;8.32;;
27580;SDS011;15013;52.298;7.978;2022-08-19T18:13:03;9.48;;;8.38;;
27580;SDS011;15013;52.298;7.978;2022-08-19T18:18:04;11.15;;;7.88;;
27580;SDS011;15013;52.298;7.978;2022-08-19T18:23:04;10.32;;;8.63;;
27580;SDS011;15013;52.298;7.978;2022-08-19T18:28:04;9.80;;;8.23;;
27580;SDS011;15013;52.298;7.978;2022-08-19T18:33:06;10.03;;;8.13;;
27580;SDS011;15013;52.298;7.978;2022-08-19T18:38:16;8.50;;;7.80;;
27580;SDS011;15013;52.298;7.978;2022-08-19T18:43:35;8.95;;;8.02;;
27580;SDS011;15013;52.298;7.978;2022-08-19T18:48:54;9.18;;;8.27;;
27580;SDS011;15013;52.298;7.978;2022-08-19T18:54:04;10.00;;;8.48;;
27580;SDS011;15013;52.298;7.978;2022-08-19T18:59:04;8.63;;;7.70;;
27580;SDS011;15013;52.298;7.978;2022-08-19T19:04:06;8.70;;;7.93;;
27580;SDS011;15013;52.298;7.978;2022-08-19T19:09:10;9.83;;;8.93;;
27580;SDS011;15013;52.298;7.978;2022-08-19T19:14:12;11.30;;;8.45;;
27580;SDS011;15013;52.298;7.978;2022-08-19T19:19:13;9.93;;;9.02;;
27580;SDS011;15013;52.298;7.978;2022-08-19T19:24:18;11.35;;;10.10;;
27580;SDS011;15013;52.298;7.978;2022-08-19T19:29:19;9.07;;;8.25;;
27580;SDS011;15013;52.298;7.978;2022-08-19T19:34:20;11.73;;;10.73;;
27580;SDS011;15013;52.298;7.978;2022-08-19T19:39:21;17.80;;;13.23;;
27580;SDS011;15013;52.298;7.978;2022-08-19T19:44:21;20.80;;;17.17;;
27580;SDS011;15013;52.298;7.978;2022-08-19T19:49:22;19.37;;;16.27;;
27580;SDS011;15013;52.298;7.978;2022-08-19T19:54:22;21.92;;;19.80;;
27580;SDS011;15013;52.298;7.978;2022-08-19T19:59:23;33.63;;;22.33;;
27580;SDS011;15013;52.298;7.978;2022-08-19T20:04:23;26.97;;;21.27;;
27580;SDS011;15013;52.298;7.978;2022-08-19T20:09:23;30.43;;;23.43;;
27580;SDS011;15013;52.298;7.978;2022-08-19T20:14:25;28.70;;;23.03;;
27580;SDS011;15013;52.298;7.978;2022-08-19T20:19:29;29.95;;;24.25;;
27580;SDS011;15013;52.298;7.978;2022-08-19T20:24:36;29.42;;;24.45;;
27580;SDS011;15013;52.298;7.978;2022-08-19T20:29:38;30.92;;;26.05;;
27580;SDS011;15013;52.298;7.978;2022-08-19T20:34:38;28.75;;;24.05;;
27580;SDS011;15013;52.298;7.978;2022-08-19T20:39:39;30.98;;;27.08;;
27580;SDS011;15013;52.298;7.978;2022-08-19T20:44:39;30.40;;;24.83;;
27580;SDS011;15013;52.298;7.978;2022-08-19T20:49:40;28.70;;;25.70;;
27580;SDS011;15013;52.298;7.978;2022-08-19T20:54:40;31.70;;;23.73;;
27580;SDS011;15013;52.298;7.978;2022-08-19T20:59:40;32.10;;;25.73;;
27580;SDS011;15013;52.298;7.978;2022-08-19T21:04:41;30.70;;;22.80;;
27580;SDS011;15013;52.298;7.978;2022-08-19T21:09:41;31.47;;;22.53;;
27580;SDS011;15013;52.298;7.978;2022-08-19T21:14:42;29.80;;;22.40;;
27580;SDS011;15013;52.298;7.978;2022-08-19T21:19:42;30.48;;;24.98;;
27580;SDS011;15013;52.298;7.978;2022-08-19T21:24:43;33.40;;;25.63;;
27580;SDS011;15013;52.298;7.978;2022-08-19T21:29:43;30.90;;;24.10;;
27580;SDS011;15013;52.298;7.978;2022-08-19T21:34:43;28.83;;;22.77;;
27580;SDS011;15013;52.298;7.978;2022-08-19T21:39:46;31.48;;;23.80;;
27580;SDS011;15013;52.298;7.978;2022-08-19T21:44:46;29.50;;;22.58;;
27580;SDS011;15013;52.298;7.978;2022-08-19T21:49:46;26.43;;;23.23;;
27580;SDS011;15013;52.298;7.978;2022-08-19T21:54:47;30.77;;;24.87;;
27580;SDS011;15013;52.298;7.978;2022-08-19T21:59:47;29.50;;;25.03;;
27580;SDS011;15013;52.298;7.978;2022-08-19T22:04:48;28.45;;;24.25;;
27580;SDS011;15013;52.298;7.978;2022-08-19T22:09:49;30.30;;;23.10;;
27580;SDS011;15013;52.298;7.978;2022-08-19T22:14:50;26.08;;;22.15;;
27580;SDS011;15013;52.298;7.978;2022-08-19T22:19:51;29.92;;;22.55;;
27580;SDS011;15013;52.298;7.978;2022-08-19T22:24:51;32.17;;;25.10;;
27580;SDS011;15013;52.298;7.978;2022-08-19T22:29:52;31.05;;;23.95;;
27580;SDS011;15013;52.298;7.978;2022-08-19T22:34:52;28.13;;;22.80;;
27580;SDS011;15013;52.298;7.978;2022-08-19T22:39:55;25.55;;;20.83;;
27580;SDS011;15013;52.298;7.978;2022-08-19T22:44:56;26.45;;;20.42;;
27580;SDS011;15013;52.298;7.978;2022-08-19T22:49:57;26.45;;;21.42;;
27580;SDS011;15013;52.298;7.978;2022-08-19T22:54:58;27.83;;;21.00;;
27580;SDS011;15013;52.298;7.978;2022-08-19T22:59:59;30.40;;;21.75;;
27580;SDS011;15013;52.298;7.978;2022-08-19T23:05:00;28.70;;;21.20;;
27580;SDS011;15013;52.298;7.978;2022-08-19T23:10:05;28.75;;;21.20;;
27580;SDS011;15013;52.298;7.978;2022-08-19T23:15:19;29.03;;;19.53;;
27580;SDS011;15013;52.298;7.978;2022-08-19T23:20:23;27.60;;;19.50;;
27580;SDS011;15013;52.298;7.978;2022-08-19T23:25:27;27.33;;;20.00;;
27580;SDS011;15013;52.298;7.978;2022-08-19T23:30:28;28.27;;;19.92;;
27580;SDS011;15013;52.298;7.978;2022-08-19T23:35:31;29.45;;;21.85;;
27580;SDS011;15013;52.298;7.978;2022-08-19T23:40:32;26.83;;;19.95;;
27580;SDS011;15013;52.298;7.978;2022-08-19T23:45:35;25.95;;;20.92;;
27580;SDS011;15013;52.298;7.978;2022-08-19T23:50:38;25.88;;;19.58;;
27580;SDS011;15013;52.298;7.978;2022-08-19T23:55:40;26.15;;;18.65;;
